Time;durP1;ratioP1;P1;durP2;ratioP2;P2;SDS_P1;SDS_P2;PMS_P1;PMS_P2;Temp;Humidity;BMP_temperature;BMP_pressure;BME280_temperature;BME280_humidity;BME280_pressure;Samples;Min_cycle;Max_cycle;Signal;HPM_P1;HPM_P2
2021/12/30 00:02:25;;;;;;;0.80;0.80;;;;;;;;;;4985584;28;20046;-44
2021/12/30 00:04:50;;;;;;;0.57;0.57;;;;;;;;;;4991781;28;20455;-42
2021/12/30 00:07:15;;;;;;;0.80;0.80;;;;;;;;;;4985126;28;20521;-44
2021/12/30 00:09:41;;;;;;;0.90;0.50;;;;;;;;;;4967271;28;20035;-43
2021/12/30 00:12:06;;;;;;;1.25;1.20;;;;;;;;;;4972745;28;20044;-43
2021/12/30 00:14:32;;;;;;;0.60;0.60;;;;;;;;;;4985417;28;20051;-45
2021/12/30 00:16:57;;;;;;;2.33;0.70;;;;;;;;;;4986495;28;20030;-46
2021/12/30 00:19:22;;;;;;;1.75;0.40;;;;;;;;;;4983664;28;20394;-43
2021/12/30 00:21:47;;;;;;;0.90;0.50;;;;;;;;;;4973947;28;20030;-43
2021/12/30 00:24:13;;;;;;;1.17;0.70;;;;;;;;;;4964688;28;20559;-44
2021/12/30 00:26:38;;;;;;;2.10;0.65;;;;;;;;;;4971211;28;20059;-42
2021/12/30 00:29:04;;;;;;;2.17;1.25;;;;;;;;;;4964365;28;20042;-42
2021/12/30 00:31:29;;;;;;;1.77;0.70;;;;;;;;;;4981100;28;20038;-44
2021/12/30 00:33:55;;;;;;;1.05;0.55;;;;;;;;;;4983645;28;20042;-42
2021/12/30 00:36:20;;;;;;;0.82;0.50;;;;;;;;;;4981161;28;20494;-45
2021/12/30 00:38:45;;;;;;;0.98;0.50;;;;;;;;;;4977908;28;20038;-43
2021/12/30 00:41:11;;;;;;;0.80;0.50;;;;;;;;;;4963599;28;20035;-42
2021/12/30 00:43:36;;;;;;;0.70;0.52;;;;;;;;;;4964358;28;20038;-43
2021/12/30 00:46:02;;;;;;;0.32;0.32;;;;;;;;;;4962789;28;20443;-43
2021/12/30 00:48:27;;;;;;;0.80;0.47;;;;;;;;;;4983610;28;20034;-44
2021/12/30 00:50:53;;;;;;;2.55;0.50;;;;;;;;;;4976814;28;20727;-44
2021/12/30 00:53:18;;;;;;;2.22;0.40;;;;;;;;;;4971945;28;20130;-45
2021/12/30 00:55:43;;;;;;;1.63;0.40;;;;;;;;;;4296467;28;10000602;-44
2021/12/30 00:58:09;;;;;;;0.77;0.50;;;;;;;;;;4986826;28;20269;-43
2021/12/30 01:00:36;;;;;;;2.17;0.40;;;;;;;;;;4988823;28;20041;-43
2021/12/30 01:03:01;;;;;;;0.57;0.47;;;;;;;;;;4985113;28;20133;-44
2021/12/30 01:05:27;;;;;;;0.38;0.38;;;;;;;;;;4987430;28;20198;-45
2021/12/30 01:07:52;;;;;;;1.63;0.40;;;;;;;;;;4985427;28;20452;-44
2021/12/30 01:10:20;;;;;;;1.00;0.55;;;;;;;;;;4969161;28;20027;-44
2021/12/30 01:12:45;;;;;;;1.35;0.30;;;;;;;;;;4978447;28;20046;-42
2021/12/30 01:15:12;;;;;;;0.40;0.40;;;;;;;;;;4987777;28;20030;-43
2021/12/30 01:20:13;;;;;;;0.88;0.63;;;;;;;;;;4973839;28;20042;-44
2021/12/30 01:22:39;;;;;;;0.60;0.52;;;;;;;;;;4977426;28;20636;-44
2021/12/30 01:25:07;;;;;;;0.30;0.30;;;;;;;;;;4965586;28;20027;-45
2021/12/30 01:27:32;;;;;;;0.40;0.30;;;;;;;;;;4961338;28;20098;-44
2021/12/30 01:29:57;;;;;;;3.53;0.47;;;;;;;;;;4963105;28;20039;-42
2021/12/30 01:32:23;;;;;;;1.73;0.40;;;;;;;;;;4965718;28;20035;-43
2021/12/30 01:34:48;;;;;;;1.30;1.30;;;;;;;;;;4965268;28;20042;-46
2021/12/30 01:37:18;;;;;;;0.50;0.40;;;;;;;;;;4966001;28;20031;-45
2021/12/30 01:39:43;;;;;;;1.67;0.40;;;;;;;;;;4966311;28;20062;-43
2021/12/30 01:42:10;;;;;;;0.63;0.28;;;;;;;;;;4970074;28;20049;-43
2021/12/30 01:44:35;;;;;;;0.70;0.60;;;;;;;;;;4979174;28;20030;-43
2021/12/30 01:47:02;;;;;;;1.85;0.70;;;;;;;;;;4988235;28;20137;-43
2021/12/30 01:49:27;;;;;;;3.00;0.63;;;;;;;;;;4985241;28;20105;-44
2021/12/30 01:51:53;;;;;;;6.53;0.50;;;;;;;;;;4989879;28;20500;-43
2021/12/30 01:54:19;;;;;;;0.68;0.47;;;;;;;;;;4986358;28;20039;-43
2021/12/30 01:56:45;;;;;;;0.50;0.40;;;;;;;;;;4989075;28;20097;-43
2021/12/30 01:59:11;;;;;;;1.00;0.68;;;;;;;;;;4972557;28;20039;-44
2021/12/30 02:01:36;;;;;;;1.25;0.30;;;;;;;;;;4968364;28;20039;-43
2021/12/30 02:04:02;;;;;;;0.68;0.68;;;;;;;;;;4975194;28;20130;-43
2021/12/30 02:06:27;;;;;;;1.02;0.30;;;;;;;;;;4981484;28;20112;-44
2021/12/30 02:08:53;;;;;;;0.88;0.47;;;;;;;;;;4993736;28;20446;-45
2021/12/30 02:11:19;;;;;;;1.65;0.50;;;;;;;;;;4988428;28;20026;-42
2021/12/30 02:13:45;;;;;;;0.50;0.50;;;;;;;;;;4986491;28;20046;-43
2021/12/30 02:16:11;;;;;;;1.50;0.47;;;;;;;;;;4979905;28;20376;-43
2021/12/30 02:18:36;;;;;;;0.40;0.30;;;;;;;;;;4975898;28;20045;-44
2021/12/30 02:21:02;;;;;;;0.70;0.40;;;;;;;;;;4966950;28;20069;-43
2021/12/30 02:23:27;;;;;;;0.90;0.45;;;;;;;;;;4963115;28;20035;-43
2021/12/30 02:25:54;;;;;;;1.07;0.70;;;;;;;;;;4968670;28;20026;-44
2021/12/30 02:28:21;;;;;;;1.75;0.63;;;;;;;;;;4967808;28;20279;-44
2021/12/30 02:30:46;;;;;;;1.50;0.40;;;;;;;;;;4976861;28;20515;-45
2021/12/30 02:33:12;;;;;;;3.92;0.70;;;;;;;;;;4965902;28;20087;-43
2021/12/30 02:35:38;;;;;;;1.27;0.52;;;;;;;;;;4968458;28;20411;-46
2021/12/30 02:38:04;;;;;;;0.43;0.20;;;;;;;;;;4965302;28;20045;-45
2021/12/30 02:40:33;;;;;;;1.10;0.50;;;;;;;;;;4970196;28;20122;-45
2021/12/30 02:42:59;;;;;;;0.68;0.40;;;;;;;;;;4979104;28;20042;-43
2021/12/30 02:45:25;;;;;;;1.05;0.40;;;;;;;;;;4971852;28;20074;-48
2021/12/30 02:47:50;;;;;;;1.45;0.60;;;;;;;;;;4983860;28;20030;-43
2021/12/30 02:50:15;;;;;;;0.45;0.30;;;;;;;;;;4989755;28;20066;-43
2021/12/30 02:52:40;;;;;;;0.63;0.30;;;;;;;;;;4991527;28;20053;-44
2021/12/30 02:55:06;;;;;;;1.48;0.55;;;;;;;;;;4987722;28;20041;-44
2021/12/30 02:57:31;;;;;;;0.30;0.30;;;;;;;;;;4986391;28;20133;-44
2021/12/30 02:59:56;;;;;;;1.42;0.30;;;;;;;;;;4976082;28;20043;-45
2021/12/30 03:02:22;;;;;;;2.67;0.60;;;;;;;;;;4964393;28;20057;-46
2021/12/30 03:04:47;;;;;;;1.70;0.50;;;;;;;;;;4966555;28;20031;-43
2021/12/30 03:07:12;;;;;;;1.77;0.80;;;;;;;;;;4976277;28;20505;-43
2021/12/30 03:09:38;;;;;;;0.30;0.30;;;;;;;;;;4966150;28;20039;-44
2021/12/30 03:12:03;;;;;;;0.30;0.30;;;;;;;;;;4982560;28;20038;-45
2021/12/30 03:14:29;;;;;;;0.73;0.35;;;;;;;;;;4974240;28;20041;-44
2021/12/30 03:16:54;;;;;;;0.57;0.40;;;;;;;;;;4967910;28;20601;-44
2021/12/30 03:19:20;;;;;;;1.55;0.50;;;;;;;;;;4961732;28;20399;-43
2021/12/30 03:21:45;;;;;;;0.60;0.30;;;;;;;;;;4966509;28;20114;-45
2021/12/30 03:24:10;;;;;;;1.25;0.60;;;;;;;;;;4967259;28;20042;-47
2021/12/30 03:26:36;;;;;;;2.20;0.60;;;;;;;;;;4986780;28;20178;-42
2021/12/30 03:29:02;;;;;;;1.75;0.75;;;;;;;;;;4980166;28;20474;-45
2021/12/30 03:31:27;;;;;;;3.50;1.00;;;;;;;;;;4987040;28;20379;-43
2021/12/30 03:33:53;;;;;;;2.80;0.50;;;;;;;;;;4986746;28;20510;-44
2021/12/30 03:36:19;;;;;;;0.70;0.45;;;;;;;;;;4985430;28;20030;-44
2021/12/30 03:38:46;;;;;;;0.80;0.50;;;;;;;;;;4979740;28;20037;-43
2021/12/30 03:41:12;;;;;;;2.53;0.70;;;;;;;;;;4986488;28;20042;-43
2021/12/30 03:43:37;;;;;;;2.13;0.90;;;;;;;;;;4973730;28;20482;-44
2021/12/30 03:46:04;;;;;;;2.40;0.70;;;;;;;;;;4966015;28;20047;-46
2021/12/30 03:48:33;;;;;;;4.28;0.80;;;;;;;;;;4967628;28;20039;-43
2021/12/30 03:51:04;;;;;;;1.48;0.90;;;;;;;;;;4966228;28;20037;-42
2021/12/30 03:53:29;;;;;;;4.72;1.02;;;;;;;;;;4966639;28;20506;-44
2021/12/30 03:55:54;;;;;;;4.50;1.17;;;;;;;;;;4962408;28;20041;-43
2021/12/30 03:58:20;;;;;;;3.83;1.00;;;;;;;;;;4961670;28;20046;-43
2021/12/30 04:00:45;;;;;;;6.32;1.13;;;;;;;;;;4966492;28;20042;-46
2021/12/30 04:03:10;;;;;;;6.95;1.63;;;;;;;;;;4966688;28;20111;-43
2021/12/30 04:05:36;;;;;;;4.78;1.75;;;;;;;;;;4969978;28;20026;-44
2021/12/30 04:08:01;;;;;;;4.18;1.80;;;;;;;;;;4966678;28;20057;-44
2021/12/30 04:10:26;;;;;;;3.78;1.30;;;;;;;;;;4967982;28;20324;-44
2021/12/30 04:12:52;;;;;;;8.60;2.17;;;;;;;;;;4973025;28;20577;-45
2021/12/30 04:15:17;;;;;;;5.65;2.88;;;;;;;;;;4966124;28;20038;-43
2021/12/30 04:17:43;;;;;;;6.13;2.40;;;;;;;;;;4966723;28;20022;-42
2021/12/30 04:20:10;;;;;;;10.38;1.95;;;;;;;;;;4976915;28;20049;-44
2021/12/30 04:22:36;;;;;;;8.25;2.63;;;;;;;;;;4985078;28;20502;-45
2021/12/30 04:25:02;;;;;;;6.45;2.60;;;;;;;;;;4985824;28;20022;-46
2021/12/30 04:27:27;;;;;;;9.15;2.33;;;;;;;;;;4983318;28;20065;-43
2021/12/30 04:29:53;;;;;;;7.38;3.08;;;;;;;;;;4966984;28;20562;-46
2021/12/30 04:32:18;;;;;;;7.43;2.88;;;;;;;;;;4965825;28;20101;-44
2021/12/30 04:34:43;;;;;;;5.18;2.00;;;;;;;;;;4970359;28;20042;-43
2021/12/30 04:37:08;;;;;;;9.05;2.70;;;;;;;;;;4985370;28;20023;-44
2021/12/30 04:39:33;;;;;;;9.48;2.50;;;;;;;;;;4977405;28;20030;-43
2021/12/30 04:42:01;;;;;;;8.60;2.95;;;;;;;;;;4965190;28;20895;-44
2021/12/30 04:44:26;;;;;;;8.88;3.42;;;;;;;;;;4966747;28;20129;-44
2021/12/30 04:46:51;;;;;;;8.57;3.15;;;;;;;;;;4966307;28;20118;-46
2021/12/30 04:49:17;;;;;;;9.95;3.85;;;;;;;;;;4965288;28;20039;-43
2021/12/30 04:51:42;;;;;;;7.57;2.55;;;;;;;;;;4965523;28;20051;-44
2021/12/30 04:54:08;;;;;;;14.30;2.95;;;;;;;;;;4974475;28;20406;-43
2021/12/30 04:56:33;;;;;;;14.13;3.47;;;;;;;;;;4965002;28;20681;-45
2021/12/30 04:58:58;;;;;;;7.18;3.47;;;;;;;;;;4972463;28;20035;-43
2021/12/30 05:01:24;;;;;;;8.18;2.85;;;;;;;;;;4967535;28;20038;-44
2021/12/30 05:03:49;;;;;;;8.25;2.70;;;;;;;;;;4985450;28;20034;-45
2021/12/30 05:06:14;;;;;;;14.88;4.15;;;;;;;;;;4983477;28;20061;-43
2021/12/30 05:08:40;;;;;;;9.35;3.55;;;;;;;;;;4973819;28;20046;-44
2021/12/30 05:11:05;;;;;;;15.77;3.40;;;;;;;;;;4965722;28;20479;-43
2021/12/30 05:13:30;;;;;;;9.98;3.58;;;;;;;;;;4966014;28;20481;-44
2021/12/30 05:15:56;;;;;;;15.07;3.17;;;;;;;;;;4963395;28;20028;-45
2021/12/30 05:18:29;;;;;;;12.95;3.65;;;;;;;;;;4963902;28;20129;-44
2021/12/30 05:20:55;;;;;;;21.17;4.70;;;;;;;;;;4978771;28;20043;-43
2021/12/30 05:23:20;;;;;;;8.43;4.25;;;;;;;;;;4968750;28;20035;-44
2021/12/30 05:25:45;;;;;;;13.23;3.17;;;;;;;;;;4970423;28;20035;-44
2021/12/30 05:28:11;;;;;;;13.27;3.83;;;;;;;;;;4968778;28;20030;-43
2021/12/30 05:30:36;;;;;;;11.73;3.83;;;;;;;;;;4977552;28;20035;-44
2021/12/30 05:33:02;;;;;;;11.30;4.55;;;;;;;;;;4975465;28;20046;-47
2021/12/30 05:35:27;;;;;;;13.60;3.50;;;;;;;;;;4987773;28;20030;-44
2021/12/30 05:37:52;;;;;;;15.38;4.43;;;;;;;;;;4992528;28;20041;-43
2021/12/30 05:40:19;;;;;;;14.30;3.67;;;;;;;;;;4989735;28;20510;-42
2021/12/30 05:42:45;;;;;;;17.23;4.45;;;;;;;;;;4990993;28;20537;-46
2021/12/30 05:45:11;;;;;;;15.18;3.83;;;;;;;;;;4989381;28;20030;-46
2021/12/30 05:47:36;;;;;;;11.05;4.00;;;;;;;;;;4991303;28;20031;-45
2021/12/30 05:50:03;;;;;;;10.50;3.88;;;;;;;;;;4989553;28;20030;-44
2021/12/30 05:52:28;;;;;;;11.45;3.80;;;;;;;;;;4987467;28;20058;-43
2021/12/30 05:54:53;;;;;;;10.52;3.80;;;;;;;;;;4993394;28;20041;-49
2021/12/30 05:57:18;;;;;;;13.45;4.85;;;;;;;;;;4993518;28;20121;-44
2021/12/30 05:59:44;;;;;;;7.22;3.05;;;;;;;;;;4989168;28;20077;-48
2021/12/30 06:02:09;;;;;;;9.73;4.20;;;;;;;;;;4987971;28;20038;-47
2021/12/30 06:04:34;;;;;;;10.75;4.18;;;;;;;;;;4985353;28;20133;-45
2021/12/30 06:06:59;;;;;;;12.65;4.22;;;;;;;;;;4969394;28;20043;-44
2021/12/30 06:09:26;;;;;;;9.23;3.33;;;;;;;;;;4964660;28;20070;-43
2021/12/30 06:11:51;;;;;;;11.43;3.83;;;;;;;;;;4973161;28;20049;-46
2021/12/30 06:14:17;;;;;;;14.57;4.88;;;;;;;;;;4963717;28;20043;-46
2021/12/30 06:16:42;;;;;;;10.52;3.67;;;;;;;;;;4962497;28;20038;-45
2021/12/30 06:19:07;;;;;;;17.60;4.25;;;;;;;;;;4968011;28;20035;-45
2021/12/30 06:21:33;;;;;;;9.30;4.10;;;;;;;;;;4989852;28;20037;-47
2021/12/30 06:23:58;;;;;;;13.88;4.47;;;;;;;;;;4987622;28;20034;-43
2021/12/30 06:26:23;;;;;;;9.35;3.13;;;;;;;;;;4992791;28;20039;-45
2021/12/30 06:28:49;;;;;;;8.80;3.03;;;;;;;;;;4987396;28;20049;-45
2021/12/30 06:31:14;;;;;;;11.80;4.07;;;;;;;;;;4988215;28;20125;-45
2021/12/30 06:33:39;;;;;;;9.90;3.90;;;;;;;;;;4979066;28;20050;-44
2021/12/30 06:36:05;;;;;;;11.15;3.95;;;;;;;;;;4995072;28;20056;-45
2021/12/30 06:38:31;;;;;;;12.18;2.67;;;;;;;;;;4987253;28;20046;-45
2021/12/30 06:40:56;;;;;;;8.75;4.18;;;;;;;;;;4988055;28;20030;-43
2021/12/30 06:43:22;;;;;;;12.35;3.58;;;;;;;;;;4985705;28;20048;-43
2021/12/30 06:45:47;;;;;;;9.20;4.38;;;;;;;;;;4975853;28;20041;-44
2021/12/30 06:48:15;;;;;;;13.95;4.10;;;;;;;;;;4974244;28;20038;-43
2021/12/30 06:50:41;;;;;;;12.25;4.55;;;;;;;;;;4988084;28;20042;-45
2021/12/30 06:53:07;;;;;;;15.15;4.43;;;;;;;;;;4971690;28;20051;-43
2021/12/30 06:55:32;;;;;;;10.57;3.88;;;;;;;;;;4970766;28;20408;-44
2021/12/30 06:57:57;;;;;;;7.53;3.92;;;;;;;;;;4972900;28;20033;-43
2021/12/30 07:00:23;;;;;;;15.73;3.45;;;;;;;;;;4967902;28;20039;-44
2021/12/30 07:02:48;;;;;;;15.40;4.47;;;;;;;;;;4967668;28;20727;-43
2021/12/30 07:05:13;;;;;;;16.83;4.88;;;;;;;;;;4966794;28;20129;-42
2021/12/30 07:07:39;;;;;;;12.73;3.30;;;;;;;;;;4966279;28;20077;-45
2021/12/30 07:10:05;;;;;;;15.00;4.15;;;;;;;;;;4976779;28;20046;-43
2021/12/30 07:12:30;;;;;;;9.70;2.95;;;;;;;;;;4975203;28;20030;-46
2021/12/30 07:14:57;;;;;;;11.65;3.20;;;;;;;;;;4968750;28;20093;-43
2021/12/30 07:17:22;;;;;;;8.00;2.40;;;;;;;;;;4966408;28;20041;-44
2021/12/30 07:19:47;;;;;;;13.95;3.13;;;;;;;;;;4967991;28;20035;-43
2021/12/30 07:22:12;;;;;;;8.07;3.00;;;;;;;;;;4967341;28;20505;-46
2021/12/30 07:24:38;;;;;;;5.47;2.28;;;;;;;;;;4975777;28;20404;-45
2021/12/30 07:27:03;;;;;;;6.05;2.53;;;;;;;;;;4983889;28;20430;-43
2021/12/30 07:29:28;;;;;;;8.10;2.60;;;;;;;;;;4987006;28;20486;-44
2021/12/30 07:31:53;;;;;;;5.57;2.65;;;;;;;;;;4986755;28;20061;-44
2021/12/30 07:34:19;;;;;;;10.70;2.58;;;;;;;;;;4987649;28;20532;-48
2021/12/30 07:36:44;;;;;;;3.55;2.00;;;;;;;;;;4983043;28;20380;-44
2021/12/30 07:39:09;;;;;;;7.07;2.13;;;;;;;;;;4976725;28;20438;-43
2021/12/30 07:41:35;;;;;;;6.28;2.35;;;;;;;;;;4982685;28;20113;-43
2021/12/30 07:44:00;;;;;;;7.13;2.80;;;;;;;;;;4982376;28;20402;-42
2021/12/30 07:46:25;;;;;;;3.22;2.00;;;;;;;;;;4967603;28;20490;-46
2021/12/30 07:48:50;;;;;;;8.90;4.00;;;;;;;;;;4980514;28;20080;-44
2021/12/30 07:51:16;;;;;;;2.35;1.65;;;;;;;;;;4975959;28;20096;-45
2021/12/30 07:53:41;;;;;;;9.55;2.20;;;;;;;;;;4967061;28;20047;-43
2021/12/30 07:56:07;;;;;;;8.15;2.38;;;;;;;;;;4973838;28;20054;-46
2021/12/30 07:58:32;;;;;;;2.45;1.58;;;;;;;;;;4967648;28;20046;-43
2021/12/30 08:00:57;;;;;;;6.38;2.28;;;;;;;;;;4966177;28;20050;-44
2021/12/30 08:03:24;;;;;;;4.15;1.77;;;;;;;;;;4966812;28;20046;-44
2021/12/30 08:05:49;;;;;;;3.97;1.65;;;;;;;;;;4966561;28;20027;-42
2021/12/30 08:08:15;;;;;;;3.83;1.67;;;;;;;;;;4975042;28;20031;-43
2021/12/30 08:10:40;;;;;;;9.70;2.03;;;;;;;;;;4977910;28;21073;-48
2021/12/30 08:13:05;;;;;;;7.55;1.88;;;;;;;;;;4979588;28;20097;-43
2021/12/30 08:15:30;;;;;;;1.98;1.48;;;;;;;;;;4971393;28;20149;-45
2021/12/30 08:17:56;;;;;;;5.78;2.25;;;;;;;;;;4967233;28;20471;-44
2021/12/30 08:20:22;;;;;;;2.42;1.80;;;;;;;;;;4973553;28;20050;-43
2021/12/30 08:22:48;;;;;;;4.75;1.80;;;;;;;;;;4967201;28;20085;-43
2021/12/30 08:25:14;;;;;;;4.25;1.50;;;;;;;;;;4965461;28;20035;-42
2021/12/30 08:27:39;;;;;;;5.13;1.95;;;;;;;;;;4966614;28;20045;-44
2021/12/30 08:30:08;;;;;;;7.38;2.20;;;;;;;;;;4965427;28;20055;-43
2021/12/30 08:32:33;;;;;;;9.13;2.40;;;;;;;;;;4976614;28;20204;-43
2021/12/30 08:34:58;;;;;;;9.73;3.22;;;;;;;;;;4980318;28;20057;-44
2021/12/30 08:37:24;;;;;;;4.63;2.72;;;;;;;;;;4985641;28;20053;-44
2021/12/30 08:39:49;;;;;;;4.57;2.10;;;;;;;;;;4984800;28;20034;-47
2021/12/30 08:42:40;;;;;;;6.18;2.08;;;;;;;;;;4981980;28;20395;-44
2021/12/30 08:45:06;;;;;;;6.35;2.47;;;;;;;;;;4976729;28;20039;-43
2021/12/30 08:47:32;;;;;;;9.35;3.17;;;;;;;;;;4978136;28;20115;-42
2021/12/30 08:49:57;;;;;;;6.90;3.03;;;;;;;;;;4966297;28;20069;-45
2021/12/30 08:52:23;;;;;;;6.07;2.63;;;;;;;;;;4972658;28;20072;-44
2021/12/30 08:54:49;;;;;;;8.18;3.33;;;;;;;;;;4971732;28;20038;-44
2021/12/30 08:57:15;;;;;;;11.02;2.50;;;;;;;;;;4985017;28;20394;-44
2021/12/30 08:59:41;;;;;;;6.78;3.38;;;;;;;;;;4966303;28;20113;-45
2021/12/30 09:02:07;;;;;;;8.40;2.80;;;;;;;;;;4965625;28;20058;-44
2021/12/30 09:04:32;;;;;;;5.82;2.10;;;;;;;;;;4972585;28;20049;-44
2021/12/30 09:06:58;;;;;;;10.80;3.20;;;;;;;;;;4966630;28;20027;-44
2021/12/30 09:09:23;;;;;;;5.18;2.80;;;;;;;;;;4975940;28;20041;-44
2021/12/30 09:11:48;;;;;;;8.85;2.65;;;;;;;;;;4989268;28;20041;-45
2021/12/30 09:14:14;;;;;;;9.55;2.67;;;;;;;;;;4984347;28;20572;-45
2021/12/30 09:16:40;;;;;;;6.75;2.95;;;;;;;;;;4985728;28;20038;-44
2021/12/30 09:19:05;;;;;;;8.77;2.70;;;;;;;;;;4983476;28;20030;-43
2021/12/30 09:21:30;;;;;;;7.13;2.35;;;;;;;;;;4964725;28;20153;-46
2021/12/30 09:23:56;;;;;;;8.02;2.58;;;;;;;;;;4971104;28;20158;-45
2021/12/30 09:26:21;;;;;;;8.13;2.47;;;;;;;;;;4968034;28;20039;-45
2021/12/30 09:28:46;;;;;;;9.35;2.00;;;;;;;;;;4984494;28;20030;-46
2021/12/30 09:31:11;;;;;;;5.28;2.35;;;;;;;;;;4989796;28;20042;-46
2021/12/30 09:33:37;;;;;;;4.97;1.95;;;;;;;;;;4983978;28;20046;-46
2021/12/30 09:36:02;;;;;;;8.60;2.17;;;;;;;;;;4985795;28;20035;-46
2021/12/30 09:38:28;;;;;;;5.50;2.13;;;;;;;;;;4987782;28;20050;-49
2021/12/30 09:40:54;;;;;;;6.75;1.33;;;;;;;;;;4985933;28;20042;-49
2021/12/30 09:43:19;;;;;;;8.38;1.88;;;;;;;;;;4984283;28;20081;-48
2021/12/30 09:45:44;;;;;;;9.82;2.08;;;;;;;;;;4985486;28;20105;-48
2021/12/30 09:48:11;;;;;;;6.32;2.30;;;;;;;;;;4984720;28;20042;-48
2021/12/30 09:50:41;;;;;;;3.40;2.53;;;;;;;;;;4968645;28;20046;-50
2021/12/30 09:53:07;;;;;;;5.85;2.03;;;;;;;;;;4986115;28;20153;-44
2021/12/30 09:55:32;;;;;;;6.38;2.20;;;;;;;;;;4973245;28;20125;-46
2021/12/30 09:57:58;;;;;;;5.80;1.55;;;;;;;;;;4965056;28;20038;-45
2021/12/30 10:00:24;;;;;;;7.78;2.35;;;;;;;;;;4964052;28;20097;-46
2021/12/30 10:02:49;;;;;;;6.93;1.60;;;;;;;;;;4967079;28;20111;-45
2021/12/30 10:05:16;;;;;;;1.92;1.40;;;;;;;;;;4967707;28;20038;-43
2021/12/30 10:07:41;;;;;;;6.57;2.05;;;;;;;;;;4975693;28;20035;-43
2021/12/30 10:10:26;;;;;;;5.10;2.05;;;;;;;;;;4969307;28;20561;-45
2021/12/30 10:12:51;;;;;;;3.13;1.67;;;;;;;;;;4991192;28;20402;-47
2021/12/30 10:15:16;;;;;;;8.00;1.95;;;;;;;;;;4987463;28;20513;-44
2021/12/30 10:17:42;;;;;;;5.03;1.50;;;;;;;;;;4989111;28;20042;-45
2021/12/30 10:20:21;;;;;;;4.88;2.00;;;;;;;;;;4989793;28;20034;-44
2021/12/30 10:22:46;;;;;;;;;;;;;;;;;;4993449;28;20038;-44
2021/12/30 10:25:25;;;;;;;5.68;1.85;;;;;;;;;;4970443;28;19941;-46
2021/12/30 10:27:50;;;;;;;3.67;1.83;;;;;;;;;;4988008;28;20046;-44
2021/12/30 10:30:32;;;;;;;7.97;2.00;;;;;;;;;;4987071;28;20034;-44
2021/12/30 10:33:11;;;;;;;4.00;2.35;;;;;;;;;;4974347;28;20450;-45
2021/12/30 10:35:36;;;;;;;4.03;2.28;;;;;;;;;;4979258;28;20444;-45
2021/12/30 10:38:04;;;;;;;5.10;2.05;;;;;;;;;;4978119;28;20042;-45
2021/12/30 10:40:31;;;;;;;6.05;2.58;;;;;;;;;;4987307;28;20037;-46
2021/12/30 10:43:17;;;;;;;5.50;2.05;;;;;;;;;;4987227;28;20453;-46
2021/12/30 10:45:43;;;;;;;4.32;1.73;;;;;;;;;;4987252;28;20057;-46
2021/12/30 10:48:09;;;;;;;4.72;1.70;;;;;;;;;;4987301;28;20058;-43
2021/12/30 10:50:34;;;;;;;5.68;1.60;;;;;;;;;;4981277;28;20042;-46
2021/12/30 10:53:00;;;;;;;3.78;1.77;;;;;;;;;;4985352;28;20053;-43
2021/12/30 10:55:25;;;;;;;8.63;2.25;;;;;;;;;;4988596;28;20423;-43
2021/12/30 10:57:51;;;;;;;5.88;2.67;;;;;;;;;;4986061;28;20121;-45
2021/12/30 11:00:29;;;;;;;4.15;1.90;;;;;;;;;;4979354;28;20035;-43
2021/12/30 11:02:55;;;;;;;4.72;1.52;;;;;;;;;;4979197;28;20026;-43
2021/12/30 11:05:20;;;;;;;3.65;1.52;;;;;;;;;;4971121;28;20043;-44
2021/12/30 11:07:46;;;;;;;3.53;1.40;;;;;;;;;;4973383;28;20055;-42
2021/12/30 11:10:12;;;;;;;5.72;1.70;;;;;;;;;;4968159;28;20600;-44
2021/12/30 11:12:41;;;;;;;4.20;1.88;;;;;;;;;;4985663;28;20042;-44
2021/12/30 11:15:19;;;;;;;8.23;1.93;;;;;;;;;;4984571;28;20050;-42
2021/12/30 11:17:44;;;;;;;6.07;2.03;;;;;;;;;;4981493;28;20497;-43
2021/12/30 11:20:11;;;;;;;5.10;1.98;;;;;;;;;;4987736;28;20038;-44
2021/12/30 11:22:38;;;;;;;4.32;2.17;;;;;;;;;;4976048;28;20038;-46
2021/12/30 11:25:05;;;;;;;4.72;1.75;;;;;;;;;;4992188;28;20038;-44
2021/12/30 11:27:31;;;;;;;8.48;1.77;;;;;;;;;;4283495;28;10000643;-43
2021/12/30 11:29:58;;;;;;;9.13;2.10;;;;;;;;;;4983135;28;20728;-43
2021/12/30 11:32:25;;;;;;;11.55;2.38;;;;;;;;;;4969624;28;20042;-44
2021/12/30 11:34:50;;;;;;;8.18;1.95;;;;;;;;;;4973058;28;20447;-44
2021/12/30 11:37:16;;;;;;;5.45;1.90;;;;;;;;;;4973092;28;20037;-44
2021/12/30 11:39:43;;;;;;;4.85;2.00;;;;;;;;;;4964550;28;20049;-46
2021/12/30 11:42:10;;;;;;;7.45;1.85;;;;;;;;;;4964075;28;20030;-44
2021/12/30 11:44:37;;;;;;;3.30;1.52;;;;;;;;;;4957175;28;20035;-42
2021/12/30 11:47:04;;;;;;;4.68;1.60;;;;;;;;;;4979657;28;20565;-44
2021/12/30 11:49:47;;;;;;;2.95;1.77;;;;;;;;;;4979458;28;20048;-43
2021/12/30 11:52:13;;;;;;;5.90;1.77;;;;;;;;;;4982509;28;20118;-43
2021/12/30 11:54:39;;;;;;;3.88;1.70;;;;;;;;;;4983970;28;20059;-44
2021/12/30 11:57:23;;;;;;;4.68;1.40;;;;;;;;;;4983007;28;20651;-45
2021/12/30 11:59:48;;;;;;;3.58;1.48;;;;;;;;;;4984145;28;20035;-45
2021/12/30 12:02:26;;;;;;;4.50;1.58;;;;;;;;;;4985382;28;20456;-43
2021/12/30 12:04:51;;;;;;;2.92;1.13;;;;;;;;;;4983732;28;20464;-44
2021/12/30 12:07:18;;;;;;;4.13;1.17;;;;;;;;;;4688017;28;10001245;-46
2021/12/30 12:09:43;;;;;;;4.30;1.63;;;;;;;;;;4637904;28;10001092;-45
2021/12/30 12:12:13;;;;;;;2.05;1.48;;;;;;;;;;4975742;28;20126;-44
2021/12/30 12:14:53;;;;;;;4.97;1.50;;;;;;;;;;4988212;28;20524;-45
2021/12/30 12:17:37;;;;;;;3.28;1.00;;;;;;;;;;4979357;28;20117;-43
2021/12/30 12:20:14;;;;;;;2.58;0.93;;;;;;;;;;4983185;28;20034;-45
2021/12/30 12:22:39;;;;;;;1.30;1.20;;;;;;;;;;4976759;28;20371;-44
2021/12/30 12:25:07;;;;;;;2.67;1.10;;;;;;;;;;4983726;28;20084;-43
2021/12/30 12:27:34;;;;;;;2.97;0.90;;;;;;;;;;4985109;28;20034;-45
2021/12/30 12:30:00;;;;;;;1.48;1.27;;;;;;;;;;4984093;28;20613;-43
2021/12/30 12:32:32;;;;;;;0.77;0.63;;;;;;;;;;4983483;28;20046;-44
2021/12/30 12:35:05;;;;;;;3.00;1.05;;;;;;;;;;4984128;28;20050;-43
2021/12/30 12:37:36;;;;;;;2.13;0.77;;;;;;;;;;4983269;28;20100;-43
2021/12/30 12:40:01;;;;;;;2.53;1.00;;;;;;;;;;4985295;28;20035;-42
2021/12/30 12:42:45;;;;;;;3.07;1.23;;;;;;;;;;4987335;28;20065;-43
2021/12/30 12:45:17;;;;;;;3.53;1.27;;;;;;;;;;4975869;28;20408;-42
2021/12/30 12:47:43;;;;;;;2.15;0.98;;;;;;;;;;4965512;28;20835;-43
2021/12/30 12:50:09;;;;;;;4.30;1.10;;;;;;;;;;4974386;28;20046;-43
2021/12/30 12:52:45;;;;;;;4.03;1.30;;;;;;;;;;4964854;28;20109;-44
2021/12/30 12:55:16;;;;;;;3.45;1.38;;;;;;;;;;4966738;28;20046;-43
2021/12/30 12:57:41;;;;;;;1.55;1.05;;;;;;;;;;4984728;28;20034;-43
2021/12/30 13:00:07;;;;;;;2.03;0.73;;;;;;;;;;4978612;28;20053;-43
2021/12/30 13:02:33;;;;;;;2.88;1.23;;;;;;;;;;4973319;28;20757;-43
2021/12/30 13:05:09;;;;;;;3.67;0.90;;;;;;;;;;4966308;28;20023;-45
2021/12/30 13:07:35;;;;;;;2.85;1.50;;;;;;;;;;4964268;28;20586;-43
2021/12/30 13:10:00;;;;;;;3.17;2.10;;;;;;;;;;4965849;28;20149;-43
2021/12/30 13:12:25;;;;;;;1.95;0.82;;;;;;;;;;4964969;28;20034;-43
2021/12/30 13:14:51;;;;;;;1.35;0.90;;;;;;;;;;4974599;28;20057;-43
2021/12/30 13:17:16;;;;;;;3.58;1.00;;;;;;;;;;4964889;28;20440;-42
2021/12/30 13:19:43;;;;;;;3.17;1.30;;;;;;;;;;4966352;28;20031;-45
2021/12/30 13:22:09;;;;;;;2.53;1.17;;;;;;;;;;4965250;28;20035;-43
2021/12/30 13:24:54;;;;;;;7.22;1.65;;;;;;;;;;4973730;28;20023;-45
2021/12/30 13:27:24;;;;;;;1.85;0.90;;;;;;;;;;4974164;28;20554;-47
2021/12/30 13:29:57;;;;;;;1.90;1.08;;;;;;;;;;4988523;28;20410;-43
2021/12/30 13:32:27;;;;;;;5.00;1.58;;;;;;;;;;4983686;28;20042;-43
2021/12/30 13:34:52;;;;;;;;;;;;;;;;;;4965035;28;20035;-43
2021/12/30 13:37:18;;;;;;;2.55;1.23;;;;;;;;;;4959692;28;19920;-44
2021/12/30 13:39:44;;;;;;;3.65;1.48;;;;;;;;;;4978500;28;20039;-45
2021/12/30 13:42:14;;;;;;;2.33;1.05;;;;;;;;;;4964740;28;20097;-45
2021/12/30 13:44:43;;;;;;;2.53;0.90;;;;;;;;;;4985020;28;20486;-44
2021/12/30 13:47:25;;;;;;;3.05;1.48;;;;;;;;;;4981109;28;20522;-43
2021/12/30 13:49:53;;;;;;;3.17;1.23;;;;;;;;;;4987594;28;20038;-44
2021/12/30 13:52:19;;;;;;;3.58;1.60;;;;;;;;;;4988719;28;20125;-43
2021/12/30 13:55:04;;;;;;;4.38;1.60;;;;;;;;;;4987563;28;20046;-44
2021/12/30 13:57:29;;;;;;;5.68;1.70;;;;;;;;;;4975854;28;20561;-42
2021/12/30 13:59:54;;;;;;;5.90;2.10;;;;;;;;;;4957149;28;20039;-45
2021/12/30 14:02:21;;;;;;;4.60;2.08;;;;;;;;;;4278615;28;10000659;-47
2021/12/30 14:04:46;;;;;;;4.78;1.90;;;;;;;;;;4981946;28;20053;-42
2021/12/30 14:07:15;;;;;;;3.05;1.23;;;;;;;;;;4984802;28;20084;-46
2021/12/30 14:09:51;;;;;;;4.72;2.13;;;;;;;;;;4985639;28;20046;-44
2021/12/30 14:12:17;;;;;;;4.00;1.60;;;;;;;;;;4984116;28;20039;-43
2021/12/30 14:14:42;;;;;;;3.92;1.15;;;;;;;;;;4985064;28;20039;-44
2021/12/30 14:17:10;;;;;;;2.88;1.77;;;;;;;;;;4984959;28;20048;-46
2021/12/30 14:19:37;;;;;;;3.35;1.17;;;;;;;;;;4288270;28;10000614;-43
2021/12/30 14:22:03;;;;;;;3.65;1.58;;;;;;;;;;4991714;28;20640;-48
2021/12/30 14:24:29;;;;;;;4.10;1.67;;;;;;;;;;4976249;28;20047;-48
2021/12/30 14:26:55;;;;;;;7.70;2.63;;;;;;;;;;4966718;28;20030;-45
2021/12/30 14:29:21;;;;;;;9.23;1.83;;;;;;;;;;4957199;28;20149;-48
2021/12/30 14:31:53;;;;;;;4.63;2.00;;;;;;;;;;4962166;28;20378;-45
2021/12/30 14:34:20;;;;;;;6.78;1.73;;;;;;;;;;4968554;28;20101;-45
2021/12/30 14:36:56;;;;;;;2.53;1.50;;;;;;;;;;4984820;28;20034;-47
2021/12/30 14:39:30;;;;;;;3.80;1.33;;;;;;;;;;4982143;28;20066;-44
2021/12/30 14:42:05;;;;;;;5.18;1.70;;;;;;;;;;4984841;28;20403;-47